createdAt,value
2019-05-02T00:01:45.246Z,97692.20
2019-05-02T00:04:20.135Z,97691.69
2019-05-02T00:07:03.581Z,97690.06
2019-05-02T00:09:34.626Z,97682.34
2019-05-02T00:12:05.760Z,97683.43
2019-05-02T00:14:36.226Z,97682.92
2019-05-02T00:17:06.693Z,97674.98
2019-05-02T00:19:37.544Z,97677.75
2019-05-02T00:22:12.203Z,97678.10
2019-05-02T00:24:51.741Z,97672.98
2019-05-02T00:27:20.989Z,97673.28
2019-05-02T00:29:53.917Z,97666.04
2019-05-02T00:32:22.443Z,97666.74
2019-05-02T00:34:52.343Z,97664.80
2019-05-02T00:37:24.697Z,97661.80
2019-05-02T00:39:52.657Z,97657.49
2019-05-02T00:42:22.463Z,97646.15
2019-05-02T00:44:53.123Z,97655.00
2019-05-02T00:47:35.427Z,97647.52
2019-05-02T00:50:10.730Z,97642.17
2019-05-02T00:52:36.751Z,97639.80
2019-05-02T00:55:06.461Z,97634.98
2019-05-02T00:57:35.768Z,97637.30
2019-05-02T01:00:06.296Z,97638.60
2019-05-02T01:02:41.979Z,97630.78
2019-05-02T01:05:11.647Z,97639.92
2019-05-02T01:07:41.022Z,97635.84
2019-05-02T01:10:10.820Z,97631.31
2019-05-02T01:12:44.395Z,97631.09
2019-05-02T01:15:12.469Z,97623.09
2019-05-02T01:17:41.758Z,97624.95
2019-05-02T01:20:11.053Z,97621.59
2019-05-02T01:22:40.332Z,97620.65
2019-05-02T01:25:15.355Z,97616.59
2019-05-02T01:27:46.570Z,97616.94
2019-05-02T01:30:28.502Z,97618.21
2019-05-02T01:33:07.769Z,97623.09
2019-05-02T01:36:01.708Z,97616.81
2019-05-02T01:38:35.599Z,97619.44
2019-05-02T01:41:06.026Z,97615.48
2019-05-02T01:43:35.331Z,97609.66
2019-05-02T01:46:04.793Z,97605.09
2019-05-02T01:48:34.108Z,97609.27
2019-05-02T01:51:04.262Z,97608.20
2019-05-02T01:53:35.855Z,97596.70
2019-05-02T01:56:05.414Z,97599.81
2019-05-02T01:58:34.748Z,97593.91
2019-05-02T02:01:05.097Z,97598.20
2019-05-02T02:03:34.403Z,97594.67
2019-05-02T02:06:08.233Z,97589.47
2019-05-02T02:08:34.752Z,97580.07
2019-05-02T02:11:04.340Z,97585.91
2019-05-02T02:13:36.432Z,97583.88
2019-05-02T02:16:05.911Z,97579.92
2019-05-02T02:18:39.173Z,97585.05
2019-05-02T02:21:27.711Z,97584.43
2019-05-02T02:24:04.905Z,97574.80
2019-05-02T02:26:34.219Z,97579.40
2019-05-02T02:29:07.912Z,97576.95
2019-05-02T02:31:39.752Z,97576.72
2019-05-02T02:34:05.514Z,97575.53
2019-05-02T02:36:35.118Z,97573.36
2019-05-02T02:39:13.452Z,97574.47
2019-05-02T02:41:37.959Z,97566.08
2019-05-02T02:44:23.021Z,97571.30
2019-05-02T02:46:52.818Z,97567.45
2019-05-02T02:49:24.623Z,97566.55
2019-05-02T02:51:57.981Z,97567.50
2019-05-02T02:54:24.267Z,97568.85
2019-05-02T02:56:53.576Z,97567.73
2019-05-02T02:59:26.136Z,97576.80
2019-05-02T03:01:53.903Z,97572.76
2019-05-02T03:04:23.175Z,97571.66
2019-05-02T03:06:52.513Z,97569.81
2019-05-02T03:09:26.860Z,97566.88
2019-05-02T03:12:14.341Z,97565.85
2019-05-02T03:14:49.389Z,97565.09
2019-05-02T03:17:25.741Z,97560.08
2019-05-02T03:19:54.516Z,97554.41
2019-05-02T03:22:21.294Z,97555.77
2019-05-02T03:24:50.566Z,97556.57
2019-05-02T03:27:19.831Z,97557.62
2019-05-02T03:29:49.528Z,97551.62
2019-05-02T03:32:31.925Z,97556.67
2019-05-02T03:34:54.255Z,97551.54
2019-05-02T03:37:23.842Z,97553.67
2019-05-02T03:39:57.213Z,97546.84
2019-05-02T03:42:24.634Z,97545.17
2019-05-02T03:44:56.273Z,97548.18
2019-05-02T03:47:25.865Z,97544.50
2019-05-02T03:49:55.127Z,97540.58
2019-05-02T03:52:24.904Z,97540.08
2019-05-02T03:54:54.206Z,97542.45
2019-05-02T03:57:32.440Z,97543.94
2019-05-02T03:59:54.817Z,97544.34
2019-05-02T04:02:24.605Z,97549.72
2019-05-02T04:04:59.968Z,97541.99
2019-05-02T04:07:25.067Z,97542.53
2019-05-02T04:09:54.546Z,97546.66
2019-05-02T04:12:23.801Z,97545.36
2019-05-02T04:14:55.974Z,97545.86
2019-05-02T04:17:29.163Z,97543.67
2019-05-02T04:19:58.269Z,97557.24
2019-05-02T04:22:28.174Z,97562.11
2019-05-02T04:24:57.462Z,97556.45
2019-05-02T04:27:27.944Z,97565.73
2019-05-02T04:30:10.222Z,97564.83
2019-05-02T04:32:29.028Z,97567.89
2019-05-02T04:34:58.328Z,97560.08
2019-05-02T04:37:27.619Z,97563.50
2019-05-02T04:39:58.923Z,97562.34
2019-05-02T04:42:29.381Z,97556.45
2019-05-02T04:45:14.181Z,97562.45
2019-05-02T04:47:29.944Z,97568.08
2019-05-02T04:49:59.290Z,97565.73
2019-05-02T04:52:30.003Z,97563.47
2019-05-02T04:55:14.834Z,97562.18
2019-05-02T04:57:36.930Z,97570.45
2019-05-02T05:00:08.419Z,97560.24
2019-05-02T05:02:39.350Z,97555.03
2019-05-02T05:05:09.563Z,97565.23
2019-05-02T05:07:45.783Z,97565.42
2019-05-02T05:10:12.530Z,97567.90
2019-05-02T05:12:49.406Z,97562.25
2019-05-02T05:15:33.893Z,97566.42
2019-05-02T05:17:50.064Z,97565.42
2019-05-02T05:20:20.534Z,97571.63
2019-05-02T05:22:51.497Z,97572.48
2019-05-02T05:25:27.865Z,97576.87
2019-05-02T05:28:05.611Z,97574.51
2019-05-02T05:30:31.390Z,97575.64
2019-05-02T05:33:01.612Z,97575.82
2019-05-02T05:35:32.922Z,97575.05
2019-05-02T05:38:03.134Z,97574.23
2019-05-02T05:40:33.509Z,97568.14
2019-05-02T05:43:13.638Z,97570.90
2019-05-02T05:45:48.712Z,97568.46
2019-05-02T05:48:08.544Z,97565.39
2019-05-02T05:50:41.484Z,97571.47
2019-05-02T05:53:12.399Z,97570.95
2019-05-02T05:55:44.786Z,97572.13
2019-05-02T05:58:15.745Z,97567.42
2019-05-02T06:00:53.740Z,97569.09
2019-05-02T06:03:18.024Z,97567.92
2019-05-02T06:05:48.968Z,97571.41
2019-05-02T06:08:19.939Z,97571.33
2019-05-02T06:10:49.673Z,97569.36
2019-05-02T06:13:20.265Z,97566.75
2019-05-02T06:16:01.525Z,97567.01
2019-05-02T06:18:22.070Z,97570.45
2019-05-02T06:20:53.323Z,97569.05
2019-05-02T06:23:22.824Z,97565.28
2019-05-02T06:25:53.880Z,97568.69
2019-05-02T06:28:24.587Z,97571.34
2019-05-02T06:30:54.104Z,97561.48
2019-05-02T06:33:30.429Z,97570.64
2019-05-02T06:36:00.975Z,97569.63
2019-05-02T06:38:28.911Z,97572.40
2019-05-02T06:41:01.992Z,97572.79
2019-05-02T06:43:31.754Z,97567.27
2019-05-02T06:46:01.290Z,97560.17
2019-05-02T06:48:30.786Z,97564.33
2019-05-02T06:51:00.347Z,97563.91
2019-05-02T06:53:29.841Z,97567.80
2019-05-02T06:56:00.280Z,97566.53
2019-05-02T06:58:30.804Z,97566.61
2019-05-02T07:01:00.492Z,97565.23
2019-05-02T07:03:29.967Z,97564.96
2019-05-02T07:06:02.716Z,97557.30
2019-05-02T07:08:30.889Z,97554.81
2019-05-02T07:11:03.192Z,97556.98
2019-05-02T07:13:36.156Z,97560.14
2019-05-02T07:16:37.478Z,97550.80
2019-05-02T07:19:01.748Z,97550.98
2019-05-02T07:21:31.216Z,97554.66
2019-05-02T07:24:03.508Z,97559.35
2019-05-02T07:26:34.724Z,97552.66
2019-05-02T07:29:05.587Z,97545.38
2019-05-02T07:31:34.993Z,97544.17
2019-05-02T07:34:12.799Z,97546.88
2019-05-02T07:36:39.259Z,97553.00
2019-05-02T07:39:11.220Z,97550.77
2019-05-02T07:41:41.810Z,97546.28
2019-05-02T07:44:11.362Z,97538.48
2019-05-02T07:46:51.107Z,97546.77
2019-05-02T07:49:12.825Z,97537.35
2019-05-02T07:51:42.361Z,97538.31
2019-05-02T07:54:11.776Z,97539.77
2019-05-02T07:56:41.412Z,97543.61
2019-05-02T07:59:13.961Z,97549.06
2019-05-02T08:01:45.036Z,97547.90
2019-05-02T08:04:16.034Z,97540.16
2019-05-02T08:06:46.430Z,97550.84
2019-05-02T08:09:16.193Z,97539.58
2019-05-02T08:11:46.880Z,97543.08
2019-05-02T08:14:16.411Z,97540.58
2019-05-02T08:16:45.774Z,97542.59
2019-05-02T08:19:15.244Z,97541.45
2019-05-02T08:21:44.865Z,97541.13
2019-05-02T08:24:15.326Z,97535.27
2019-05-02T08:26:58.282Z,97542.22
2019-05-02T08:29:29.179Z,97535.38
2019-05-02T08:31:59.703Z,97535.50
2019-05-02T08:34:33.262Z,97535.23
2019-05-02T08:37:04.595Z,97536.41
2019-05-02T08:39:35.191Z,97537.27
2019-05-02T08:42:06.371Z,97535.25
2019-05-02T08:44:49.618Z,97534.80
2019-05-02T08:47:18.437Z,97524.44
2019-05-02T08:49:38.849Z,97528.61
2019-05-02T08:52:09.928Z,97517.99
2019-05-02T08:54:40.478Z,97520.38
2019-05-02T08:57:10.942Z,97516.98
2019-05-02T08:59:40.957Z,97511.53
2019-05-02T09:02:10.500Z,97508.10
2019-05-02T09:04:40.119Z,97505.01
2019-05-02T09:07:11.159Z,97515.11
2019-05-02T09:09:40.750Z,97498.27
2019-05-02T09:12:14.971Z,97499.28
2019-05-02T09:14:42.886Z,97501.97
2019-05-02T09:17:16.401Z,97504.00
2019-05-02T09:19:43.251Z,97503.30
2019-05-02T09:22:16.676Z,97494.82
2019-05-02T09:24:44.985Z,97492.52
2019-05-02T09:27:16.066Z,97491.11
2019-05-02T09:29:45.957Z,97490.16
2019-05-02T09:32:17.144Z,97483.27
2019-05-02T09:34:48.678Z,97482.09
2019-05-02T09:37:18.117Z,97486.14
2019-05-02T09:39:47.490Z,97477.52
2019-05-02T09:42:19.053Z,97477.95
2019-05-02T09:44:52.352Z,97470.05
2019-05-02T09:47:27.326Z,97475.58
2019-05-02T09:50:13.286Z,97469.91
2019-05-02T09:52:44.171Z,97464.90
2019-05-02T09:55:14.100Z,97463.28
2019-05-02T09:57:44.848Z,97460.30
2019-05-02T10:00:32.407Z,97460.49
2019-05-02T10:02:58.577Z,97465.37
2019-05-02T10:05:27.920Z,97459.85
2019-05-02T10:08:02.040Z,97449.05
2019-05-02T10:10:29.256Z,97458.25
2019-05-02T10:12:58.597Z,97452.08
2019-05-02T10:15:28.055Z,97449.56
2019-05-02T10:18:08.769Z,97445.13
2019-05-02T10:20:34.006Z,97440.87
2019-05-02T10:22:59.354Z,97444.20
2019-05-02T10:25:30.760Z,97446.63
2019-05-02T10:28:01.961Z,97438.92
2019-05-02T10:30:35.849Z,97437.09
2019-05-02T10:33:04.009Z,97429.12
2019-05-02T10:35:40.603Z,97421.06
2019-05-02T10:38:09.404Z,97410.20
2019-05-02T10:40:39.076Z,97419.50
2019-05-02T10:43:11.746Z,97424.62
2019-05-02T10:45:47.517Z,97420.35
2019-05-02T10:48:24.738Z,97409.20
2019-05-02T10:50:49.958Z,97400.56
2019-05-02T10:53:19.295Z,97413.91
2019-05-02T10:55:48.640Z,97413.72
2019-05-02T10:58:17.938Z,97414.24
2019-05-02T11:00:48.735Z,97408.58
2019-05-02T11:03:27.716Z,97408.58
2019-05-02T11:06:03.626Z,97399.98
2019-05-02T11:08:46.025Z,97397.53
2019-05-02T11:11:16.110Z,97394.93
2019-05-02T11:14:01.032Z,97390.42
2019-05-02T11:16:42.712Z,97397.02
2019-05-02T11:19:17.687Z,97401.13
2019-05-02T11:21:56.338Z,97395.66
2019-05-02T11:24:22.419Z,97388.62
2019-05-02T11:26:52.806Z,97382.61
2019-05-02T11:29:22.903Z,97387.81
2019-05-02T11:31:52.260Z,97391.22
2019-05-02T11:34:22.070Z,97379.07
2019-05-02T11:36:52.645Z,97383.94
2019-05-02T11:39:31.638Z,97384.08
2019-05-02T11:41:53.374Z,97379.15
2019-05-02T11:44:24.149Z,97377.52
2019-05-02T11:46:53.498Z,97373.91
2019-05-02T11:49:22.944Z,97380.22
2019-05-02T11:51:56.917Z,97371.19
2019-05-02T11:54:23.237Z,97373.33
2019-05-02T11:56:53.596Z,97368.59
2019-05-02T11:59:27.994Z,97371.13
2019-05-02T12:02:17.458Z,97366.00
2019-05-02T12:04:47.236Z,97367.64
2019-05-02T12:07:16.014Z,97364.04
2019-05-02T12:09:55.179Z,97364.04
2019-05-02T12:12:16.453Z,97366.20
2019-05-02T12:14:45.777Z,97359.16
2019-05-02T12:17:15.087Z,97362.49
2019-05-02T12:19:44.407Z,97353.23
2019-05-02T12:22:16.902Z,97358.72
2019-05-02T12:24:45.434Z,97353.50
2019-05-02T12:27:14.875Z,97355.14
2019-05-02T12:29:44.159Z,97343.09
2019-05-02T12:32:15.564Z,97353.41
2019-05-02T12:34:44.717Z,97351.78
2019-05-02T12:37:14.038Z,97352.11
2019-05-02T12:39:43.342Z,97344.67
2019-05-02T12:42:13.166Z,97347.41
2019-05-02T12:44:42.832Z,97347.52
2019-05-02T12:47:12.105Z,97343.80
2019-05-02T12:49:42.837Z,97343.80
2019-05-02T12:52:12.959Z,97340.37
2019-05-02T12:54:42.398Z,97347.69
2019-05-02T12:57:12.517Z,97350.64
2019-05-02T12:59:41.955Z,97336.39
2019-05-02T13:02:17.400Z,97347.67
2019-05-02T13:04:48.324Z,97329.85
2019-05-02T13:07:17.591Z,97335.50
2019-05-02T13:09:46.947Z,97332.89
2019-05-02T13:12:22.770Z,97328.80
2019-05-02T13:14:53.277Z,97331.92
2019-05-02T13:17:23.713Z,97322.42
2019-05-02T13:19:57.054Z,97330.23
2019-05-02T13:22:52.692Z,97322.81
2019-05-02T13:25:27.328Z,97316.52
2019-05-02T13:27:53.873Z,97328.47
2019-05-02T13:30:48.542Z,97313.50
2019-05-02T13:33:27.343Z,97317.66
2019-05-02T13:35:59.195Z,97310.57
2019-05-02T13:38:28.702Z,97314.91
2019-05-02T13:40:58.364Z,97315.21
2019-05-02T13:43:32.429Z,97302.92
2019-05-02T13:46:12.836Z,97301.77
2019-05-02T13:48:44.524Z,97290.70
2019-05-02T13:51:13.899Z,97291.18
2019-05-02T13:54:08.186Z,97290.34
2019-05-02T13:56:52.386Z,97290.34
2019-05-02T13:59:22.525Z,97292.39
2019-05-02T14:01:53.845Z,97286.61
2019-05-02T14:04:23.609Z,97279.61
2019-05-02T14:06:53.143Z,97279.61
2019-05-02T14:09:44.589Z,97284.07
2019-05-02T14:12:43.503Z,97282.43
2019-05-02T14:15:13.973Z,97266.07
2019-05-02T14:17:43.220Z,97267.49
2019-05-02T14:20:13.759Z,97267.49
2019-05-02T14:22:44.464Z,97259.55
2019-05-02T14:25:13.875Z,97259.34
2019-05-02T14:27:46.935Z,97260.19
2019-05-02T14:30:14.886Z,97249.84
2019-05-02T14:32:44.233Z,97246.28
2019-05-02T14:35:28.003Z,97240.95
2019-05-02T14:38:14.585Z,97235.34
2019-05-02T14:41:12.442Z,97243.20
2019-05-02T14:43:53.498Z,97232.38
2019-05-02T14:46:29.003Z,97238.95
2019-05-02T14:48:56.791Z,97233.89
2019-05-02T14:51:27.891Z,97233.97
2019-05-02T14:54:02.200Z,97228.36
2019-05-02T14:56:43.367Z,97219.81
2019-05-02T14:59:15.186Z,97219.81
2019-05-02T15:01:47.054Z,97226.65
2019-05-02T15:04:16.434Z,97233.38
2019-05-02T15:06:47.936Z,97215.37
2019-05-02T15:09:24.857Z,97215.37
2019-05-02T15:12:03.386Z,97216.41
2019-05-02T15:14:58.674Z,97219.04
2019-05-02T15:17:33.681Z,97219.04
2019-05-02T15:20:02.798Z,97209.13
2019-05-02T15:22:37.437Z,97220.50
2019-05-02T15:25:07.971Z,97215.79
2019-05-02T15:27:41.981Z,97210.74
2019-05-02T15:30:09.119Z,97211.40
2019-05-02T15:32:47.472Z,97195.94
2019-05-02T15:35:36.379Z,97195.94
2019-05-02T15:38:06.881Z,97201.73
2019-05-02T15:40:48.137Z,97191.16
2019-05-02T15:43:09.556Z,97188.58
2019-05-02T15:45:42.018Z,97188.58
2019-05-02T15:48:09.434Z,97191.37
2019-05-02T15:50:48.740Z,97187.58
2019-05-02T15:53:16.121Z,97189.72
2019-05-02T15:55:45.468Z,97188.59
2019-05-02T15:58:22.927Z,97183.47
2019-05-02T16:01:15.031Z,97172.19
2019-05-02T16:03:47.614Z,97176.83
2019-05-02T16:06:23.999Z,97176.67
2019-05-02T16:08:47.970Z,97180.67
2019-05-02T16:11:18.507Z,97181.76
2019-05-02T16:13:52.552Z,97178.81
2019-05-02T16:16:21.939Z,97176.31
2019-05-02T16:18:52.503Z,97181.03
2019-05-02T16:21:43.179Z,97160.87
2019-05-02T16:24:23.205Z,97165.78
2019-05-02T16:26:56.649Z,97157.48
2019-05-02T16:29:28.370Z,97165.94
2019-05-02T16:32:18.145Z,97172.56
2019-05-02T16:34:54.659Z,97169.92
2019-05-02T16:37:24.548Z,97165.08
2019-05-02T16:39:53.829Z,97167.06
2019-05-02T16:42:23.160Z,97166.22
2019-05-02T16:44:54.766Z,97171.03
2019-05-02T16:47:23.493Z,97167.84
2019-05-02T16:49:56.490Z,97163.70
2019-05-02T16:52:24.320Z,97165.87
2019-05-02T16:54:53.648Z,97163.82
2019-05-02T16:57:24.059Z,97163.14
2019-05-02T17:00:01.669Z,97166.84
2019-05-02T17:02:25.529Z,97162.88
2019-05-02T17:04:55.010Z,97166.84
2019-05-02T17:07:42.942Z,97157.97
2019-05-02T17:10:22.100Z,97165.89
2019-05-02T17:12:52.853Z,97163.95
2019-05-02T17:15:42.711Z,97162.68
2019-05-02T17:18:13.428Z,97162.41
2019-05-02T17:20:46.798Z,97165.04
2019-05-02T17:23:14.084Z,97164.26
2019-05-02T17:25:43.389Z,97160.46
2019-05-02T17:28:13.514Z,97159.42
2019-05-02T17:30:43.207Z,97152.88
2019-05-02T17:33:16.050Z,97157.56
2019-05-02T17:35:49.366Z,97162.50
2019-05-02T17:38:19.101Z,97161.48
2019-05-02T17:40:45.861Z,97157.86
2019-05-02T17:43:15.508Z,97159.42
2019-05-02T17:45:45.020Z,97161.25
2019-05-02T17:48:16.069Z,97156.97
2019-05-02T17:51:03.158Z,97151.00
2019-05-02T17:53:33.943Z,97151.90
2019-05-02T17:56:03.484Z,97153.91
2019-05-02T17:58:33.159Z,97155.20
2019-05-02T18:01:04.170Z,97155.36
2019-05-02T18:03:35.435Z,97162.06
2019-05-02T18:06:07.523Z,97163.25
2019-05-02T18:08:35.920Z,97164.81
2019-05-02T18:11:05.734Z,97172.02
2019-05-02T18:13:35.430Z,97178.27
2019-05-02T18:16:07.645Z,97181.91
2019-05-02T18:18:37.553Z,97172.26
2019-05-02T18:21:07.410Z,97177.02
2019-05-02T18:23:36.706Z,97185.41
2019-05-02T18:26:06.523Z,97185.97
2019-05-02T18:28:46.208Z,97180.02
2019-05-02T18:31:06.882Z,97184.27
2019-05-02T18:33:41.121Z,97182.36
2019-05-02T18:36:11.245Z,97185.16
2019-05-02T18:38:41.748Z,97184.73
2019-05-02T18:41:12.059Z,97182.48
2019-05-02T18:43:45.246Z,97187.72
2019-05-02T18:46:14.028Z,97191.82
2019-05-02T18:48:46.826Z,97187.22
2019-05-02T18:51:17.177Z,97197.21
2019-05-02T18:53:46.197Z,97193.22
2019-05-02T18:56:15.742Z,97193.30
2019-05-02T18:58:46.034Z,97200.59
2019-05-02T19:01:17.833Z,97191.82
2019-05-02T19:03:51.826Z,97190.35
2019-05-02T19:06:21.880Z,97190.41
2019-05-02T19:08:52.269Z,97191.20
2019-05-02T19:11:26.758Z,97188.13
2019-05-02T19:13:55.879Z,97194.41
2019-05-02T19:16:28.668Z,97197.15
2019-05-02T19:19:01.720Z,97204.69
2019-05-02T19:21:35.982Z,97205.70
2019-05-02T19:24:05.231Z,97208.83
2019-05-02T19:26:36.254Z,97201.47
2019-05-02T19:29:22.112Z,97199.91
2019-05-02T19:31:53.662Z,97199.24
2019-05-02T19:34:26.895Z,97204.59
2019-05-02T19:36:57.875Z,97208.05
2019-05-02T19:39:32.065Z,97208.53
2019-05-02T19:42:02.317Z,97212.94
2019-05-02T19:44:33.936Z,97208.66
2019-05-02T19:47:08.315Z,97208.43
2019-05-02T19:49:37.115Z,97198.91
2019-05-02T19:52:08.100Z,97207.62
2019-05-02T19:54:41.143Z,97205.70
2019-05-02T19:57:11.863Z,97201.05
2019-05-02T19:59:43.449Z,97205.20
2019-05-02T20:02:14.500Z,97210.99
2019-05-02T20:04:45.918Z,97216.23
2019-05-02T20:07:16.530Z,97218.52
2019-05-02T20:09:49.662Z,97226.55
2019-05-02T20:12:21.930Z,97229.18
2019-05-02T20:14:53.467Z,97224.91
2019-05-02T20:17:24.029Z,97226.31
2019-05-02T20:19:57.877Z,97232.80
2019-05-02T20:22:31.550Z,97229.27
2019-05-02T20:25:03.858Z,97226.72
2019-05-02T20:27:33.819Z,97236.44
2019-05-02T20:30:03.521Z,97233.31
2019-05-02T20:32:33.025Z,97237.47
2019-05-02T20:35:02.844Z,97237.86
2019-05-02T20:37:32.563Z,97241.39
2019-05-02T20:40:02.892Z,97240.03
2019-05-02T20:42:32.506Z,97243.17
2019-05-02T20:45:02.411Z,97249.44
2019-05-02T20:47:32.268Z,97251.62
2019-05-02T20:50:02.665Z,97254.36
2019-05-02T20:52:32.442Z,97253.57
2019-05-02T20:55:01.900Z,97252.19
2019-05-02T20:57:31.767Z,97251.39
2019-05-02T21:00:01.796Z,97249.04
2019-05-02T21:02:31.900Z,97250.81
2019-05-02T21:05:02.730Z,97244.74
2019-05-02T21:07:50.149Z,97245.50
2019-05-02T21:10:24.256Z,97242.37
2019-05-02T21:12:53.568Z,97240.98
2019-05-02T21:15:22.843Z,97239.23
2019-05-02T21:17:52.151Z,97247.63
2019-05-02T21:20:21.988Z,97239.60
2019-05-02T21:22:52.998Z,97243.55
2019-05-02T21:25:23.235Z,97251.94
2019-05-02T21:27:52.844Z,97243.52
2019-05-02T21:30:26.626Z,97247.06
2019-05-02T21:32:56.052Z,97252.94
2019-05-02T21:35:25.363Z,97248.58
2019-05-02T21:37:54.763Z,97252.09
2019-05-02T21:40:25.776Z,97249.31
2019-05-02T21:42:55.059Z,97250.85
2019-05-02T21:45:26.750Z,97257.09
2019-05-02T21:47:56.142Z,97245.33
2019-05-02T21:50:43.219Z,97259.27
2019-05-02T21:53:54.971Z,97250.41
2019-05-02T21:56:33.855Z,97260.80
2019-05-02T21:59:07.767Z,97250.00
2019-05-02T22:01:44.354Z,97254.27
2019-05-02T22:04:13.750Z,97257.81
2019-05-02T22:06:43.030Z,97255.48
2019-05-02T22:09:12.913Z,97257.06
2019-05-02T22:11:43.010Z,97258.63
2019-05-02T22:14:13.287Z,97260.15
2019-05-02T22:16:42.994Z,97276.95
2019-05-02T22:19:12.704Z,97288.47
2019-05-02T22:21:43.023Z,97291.03
2019-05-02T22:24:14.462Z,97300.41
2019-05-02T22:26:49.600Z,97296.73
2019-05-02T22:29:18.924Z,97308.64
2019-05-02T22:31:48.245Z,97302.50
2019-05-02T22:34:17.603Z,97310.09
2019-05-02T22:36:46.889Z,97302.06
2019-05-02T22:39:33.802Z,97303.02
2019-05-02T22:42:04.587Z,97308.00
2019-05-02T22:44:35.577Z,97312.31
2019-05-02T22:47:04.826Z,97307.13
2019-05-02T22:49:34.116Z,97309.41
2019-05-02T22:52:03.646Z,97308.64
2019-05-02T22:54:33.865Z,97310.83
2019-05-02T22:57:03.303Z,97311.18
2019-05-02T22:59:32.671Z,97306.25
2019-05-02T23:02:02.272Z,97311.94
2019-05-02T23:04:32.539Z,97319.30
2019-05-02T23:07:03.213Z,97321.89
2019-05-02T23:09:32.599Z,97325.83
2019-05-02T23:12:03.012Z,97317.48
2019-05-02T23:14:32.625Z,97320.09
2019-05-02T23:17:02.325Z,97317.31
2019-05-02T23:19:31.871Z,97317.86
2019-05-02T23:22:02.051Z,97314.06
2019-05-02T23:24:53.393Z,97307.55
2019-05-02T23:27:38.735Z,97302.05
2019-05-02T23:30:11.592Z,97307.02
2019-05-02T23:32:42.370Z,97296.06
2019-05-02T23:35:12.302Z,97299.97
2019-05-02T23:37:42.348Z,97298.35
2019-05-02T23:40:12.465Z,97300.67
2019-05-02T23:42:41.840Z,97297.60
2019-05-02T23:45:12.179Z,97294.63
2019-05-02T23:47:42.174Z,97293.70
2019-05-02T23:50:12.197Z,97295.00
2019-05-02T23:52:41.491Z,97297.19
2019-05-02T23:55:12.197Z,97295.61
2019-05-02T23:57:42.167Z,97300.71
